createdAt,value
2016-10-14T00:00:59.736Z,65.26
2016-10-14T00:02:09.713Z,65.2
2016-10-14T00:03:19.795Z,65.48
2016-10-14T00:04:29.770Z,65.26
2016-10-14T00:05:40.094Z,65.45
2016-10-14T00:06:50.080Z,65.45
2016-10-14T00:07:59.446Z,65.17
2016-10-14T00:09:09.114Z,65.58
2016-10-14T00:10:19.408Z,65.55
2016-10-14T00:11:29.387Z,65.36
2016-10-14T00:12:39.662Z,65.26
2016-10-14T00:13:49.955Z,65.26
2016-10-14T00:14:59.928Z,65.64
2016-10-14T00:16:09.940Z,65.64
2016-10-14T00:17:19.915Z,65.64
2016-10-14T00:18:30.206Z,65.36
2016-10-14T00:19:40.484Z,65.36
2016-10-14T00:20:50.777Z,65.36
2016-10-14T00:22:01.086Z,65.36
2016-10-14T00:23:11.374Z,65.26
2016-10-14T00:24:21.650Z,65.26
2016-10-14T00:25:31.332Z,65.07
2016-10-14T00:26:41.313Z,65.26
2016-10-14T00:27:51.630Z,65.45
2016-10-14T00:29:01.617Z,65.45
2016-10-14T00:30:11.599Z,65.45
2016-10-14T00:31:21.269Z,65.17
2016-10-14T00:32:31.261Z,65.36
2016-10-14T00:33:41.550Z,65.36
2016-10-14T00:34:51.535Z,65.45
2016-10-14T00:36:01.817Z,65.45
2016-10-14T00:37:12.108Z,65.45
2016-10-14T00:38:21.470Z,65.45
2016-10-14T00:39:31.762Z,65.45
2016-10-14T00:40:41.750Z,65.45
2016-10-14T00:41:52.050Z,65.17
2016-10-14T00:43:02.027Z,65.17
2016-10-14T00:44:12.310Z,65.17
2016-10-14T00:45:22.284Z,65.17
2016-10-14T00:46:32.581Z,65.26
2016-10-14T00:47:42.557Z,65.17
2016-10-14T00:48:52.845Z,65.26
2016-10-14T00:50:02.511Z,65.17
2016-10-14T00:51:12.499Z,65.17
2016-10-14T00:52:22.803Z,65.26
2016-10-14T00:53:33.095Z,65.36
2016-10-14T00:54:43.087Z,65.45
2016-10-14T00:55:53.055Z,65.07
2016-10-14T00:57:03.345Z,65.45
2016-10-14T00:58:13.645Z,65.36
2016-10-14T00:59:23.915Z,65.07
2016-10-14T01:00:33.260Z,64.97
2016-10-14T01:01:42.937Z,64.88
2016-10-14T01:02:52.909Z,65.36
2016-10-14T01:04:03.187Z,65.45
2016-10-14T01:05:13.463Z,65.36
2016-10-14T01:06:23.759Z,65.17
2016-10-14T01:07:34.042Z,65.13
2016-10-14T01:08:44.317Z,65.45
2016-10-14T01:09:54.289Z,65.52
2016-10-14T01:11:04.626Z,65.13
2016-10-14T01:12:14.596Z,65.42
2016-10-14T01:13:24.891Z,65.23
2016-10-14T01:14:35.175Z,65.42
2016-10-14T01:15:45.164Z,65.52
2016-10-14T01:16:55.139Z,65.52
2016-10-14T01:18:05.111Z,65.52
2016-10-14T01:19:15.397Z,65.33
2016-10-14T01:20:25.374Z,65.42
2016-10-14T01:21:35.362Z,65.42
2016-10-14T01:22:45.343Z,64.94
2016-10-14T01:23:55.623Z,65.42
2016-10-14T01:25:05.610Z,65.33
2016-10-14T01:26:15.912Z,65.42
2016-10-14T01:27:25.584Z,65.33
2016-10-14T01:28:35.540Z,65.42
2016-10-14T01:29:44.936Z,65.23
2016-10-14T01:30:55.229Z,65.33
2016-10-14T01:32:05.211Z,65.23
2016-10-14T01:33:15.522Z,65.33
2016-10-14T01:34:25.804Z,65.23
2016-10-14T01:35:36.092Z,65.13
2016-10-14T01:36:46.068Z,65.52
2016-10-14T01:37:56.058Z,64.94
2016-10-14T01:39:06.057Z,65.33
2016-10-14T01:40:16.353Z,65.33
2016-10-14T01:41:26.334Z,64.94
2016-10-14T01:42:36.312Z,65.23
2016-10-14T01:43:45.974Z,65.52
2016-10-14T01:44:56.249Z,65.33
2016-10-14T01:46:06.535Z,65.13
2016-10-14T01:47:16.823Z,65.52
2016-10-14T01:48:26.830Z,64.85
2016-10-14T01:49:37.129Z,64.94
2016-10-14T01:50:47.099Z,65.04
2016-10-14T01:51:57.413Z,65.13
2016-10-14T01:53:07.430Z,65.13
2016-10-14T01:54:17.707Z,65.04
2016-10-14T01:55:27.073Z,64.85
2016-10-14T01:56:37.050Z,64.85
2016-10-14T01:57:47.037Z,64.85
2016-10-14T01:58:56.738Z,64.94
2016-10-14T02:00:06.400Z,65.13
2016-10-14T02:01:16.696Z,64.94
2016-10-14T02:02:26.692Z,65.23
2016-10-14T02:03:36.989Z,64.94
2016-10-14T02:04:47.322Z,64.94
2016-10-14T02:05:57.598Z,64.94
2016-10-14T02:07:07.584Z,64.85
2016-10-14T02:08:17.867Z,64.85
2016-10-14T02:09:27.832Z,65.04
2016-10-14T02:10:38.144Z,65.04
2016-10-14T02:11:47.816Z,64.85
2016-10-14T02:12:58.088Z,65.33
2016-10-14T02:14:08.079Z,65.04
2016-10-14T02:15:18.361Z,65.04
2016-10-14T02:16:28.642Z,64.94
2016-10-14T02:17:38.954Z,64.94
2016-10-14T02:18:48.971Z,65.04
2016-10-14T02:19:59.259Z,64.85
2016-10-14T02:21:09.559Z,64.85
2016-10-14T02:22:19.845Z,64.94
2016-10-14T02:23:30.139Z,65.33
2016-10-14T02:24:40.434Z,65.33
2016-10-14T02:25:50.719Z,65.23
2016-10-14T02:27:01.009Z,65.33
2016-10-14T02:28:11.299Z,65.04
2016-10-14T02:29:20.988Z,64.85
2016-10-14T02:30:30.952Z,65.29
2016-10-14T02:31:40.619Z,64.81
2016-10-14T02:32:50.606Z,65.29
2016-10-14T02:34:00.272Z,64.81
2016-10-14T02:35:10.550Z,65
2016-10-14T02:36:20.540Z,65.29
2016-10-14T02:37:30.508Z,65
2016-10-14T02:38:40.170Z,65.29
2016-10-14T02:39:50.439Z,65.29
2016-10-14T02:41:00.148Z,65.48
2016-10-14T02:42:09.505Z,65.39
2016-10-14T02:43:19.191Z,65
2016-10-14T02:44:29.169Z,65.2
2016-10-14T02:45:39.471Z,65
2016-10-14T02:46:49.436Z,65.29
2016-10-14T02:47:59.409Z,64.81
2016-10-14T02:49:09.683Z,65
2016-10-14T02:50:19.674Z,65.1
2016-10-14T02:51:29.966Z,65.1
2016-10-14T02:52:40.252Z,65.1
2016-10-14T02:53:50.232Z,65.1
2016-10-14T02:54:59.910Z,64.91
2016-10-14T02:56:09.884Z,65.2
2016-10-14T02:57:19.551Z,65.2
2016-10-14T02:58:29.827Z,65.1
2016-10-14T02:59:40.109Z,65.1
2016-10-14T03:00:50.402Z,64.81
2016-10-14T03:32:39.892Z,62.56
2016-10-14T03:33:50.182Z,63.23
2016-10-14T03:35:00.153Z,64.08
2016-10-14T03:36:10.437Z,65.13
2016-10-14T03:37:20.722Z,65.73
2016-10-14T03:38:31.015Z,66.11
2016-10-14T03:39:41.285Z,65.83
2016-10-14T03:40:50.958Z,65.92
2016-10-14T03:42:00.621Z,66.59
2016-10-14T03:43:10.299Z,66.49
2016-10-14T03:44:20.583Z,66.33
2016-10-14T03:45:30.894Z,66.53
2016-10-14T03:46:40.565Z,66.14
2016-10-14T03:47:50.852Z,66.05
2016-10-14T03:49:01.127Z,66.18
2016-10-14T03:50:11.110Z,66.37
2016-10-14T03:51:21.387Z,66.08
2016-10-14T03:52:31.054Z,66.27
2016-10-14T03:53:40.725Z,66.37
2016-10-14T03:54:50.691Z,66.11
2016-10-14T03:56:00.971Z,66.02
2016-10-14T03:57:10.945Z,66.21
2016-10-14T03:58:20.913Z,65.92
2016-10-14T03:59:31.203Z,65.83
2016-10-14T04:00:40.864Z,65.55
2016-10-14T04:01:51.142Z,65.36
2016-10-14T04:03:00.803Z,65.73
2016-10-14T04:04:11.096Z,65.64
2016-10-14T04:05:21.382Z,65.58
2016-10-14T04:06:31.674Z,65.67
2016-10-14T04:07:41.655Z,65.55
2016-10-14T04:08:51.947Z,65.92
2016-10-14T04:10:02.243Z,65.86
2016-10-14T04:11:12.535Z,66.15
2016-10-14T04:12:22.817Z,66.05
2016-10-14T04:13:33.098Z,65.86
2016-10-14T04:14:43.089Z,65.96
2016-10-14T04:15:53.375Z,66.15
2016-10-14T04:17:03.659Z,65.29
2016-10-14T04:18:13.961Z,65.39
2016-10-14T04:19:24.238Z,65.2
2016-10-14T04:20:34.537Z,65.2
2016-10-14T04:21:44.510Z,65.29
2016-10-14T04:22:54.479Z,65.29
2016-10-14T04:24:04.143Z,65.1
2016-10-14T04:25:14.436Z,65.29
2016-10-14T04:26:24.737Z,65.2
2016-10-14T04:27:34.408Z,65.29
2016-10-14T04:28:44.395Z,65.29
2016-10-14T04:29:54.701Z,65.2
2016-10-14T04:31:04.988Z,65.39
2016-10-14T04:32:14.661Z,65.48
2016-10-14T04:33:24.942Z,65.48
2016-10-14T04:34:34.637Z,65.1
2016-10-14T04:35:44.906Z,65.1
2016-10-14T04:36:54.577Z,65
2016-10-14T04:38:04.553Z,65.1
2016-10-14T04:39:14.844Z,65.48
2016-10-14T04:40:25.146Z,65.39
2016-10-14T04:41:35.417Z,65.45
2016-10-14T04:42:45.699Z,65.1
2016-10-14T04:43:55.685Z,65.48
2016-10-14T04:45:05.972Z,65.2
2016-10-14T04:46:15.939Z,65.36
2016-10-14T04:47:26.234Z,65.29
2016-10-14T04:48:36.224Z,65.16
2016-10-14T04:49:46.496Z,65.48
2016-10-14T04:50:56.779Z,65.39
2016-10-14T04:52:07.080Z,65.39
2016-10-14T04:53:17.375Z,65.48
2016-10-14T04:54:27.660Z,65.48
2016-10-14T04:55:37.648Z,65.48
2016-10-14T04:56:47.950Z,65
2016-10-14T04:57:58.240Z,64.91
2016-10-14T04:59:08.224Z,65
2016-10-14T05:00:18.193Z,65.07
2016-10-14T05:01:28.167Z,65.2
2016-10-14T05:02:37.852Z,65.29
2016-10-14T05:03:47.849Z,65.29
2016-10-14T05:04:57.811Z,65.29
2016-10-14T05:06:08.097Z,65.1
2016-10-14T05:07:18.383Z,65.48
2016-10-14T05:08:28.057Z,65.29
2016-10-14T05:09:38.034Z,64.91
2016-10-14T05:10:48.310Z,65
2016-10-14T05:11:58.303Z,65.48
2016-10-14T05:13:08.269Z,65.1
2016-10-14T05:14:18.791Z,64.97
2016-10-14T05:15:29.083Z,65.29
2016-10-14T05:16:39.363Z,65.26
2016-10-14T05:17:49.655Z,65
2016-10-14T05:18:59.948Z,64.91
2016-10-14T05:20:10.244Z,65
2016-10-14T05:21:19.916Z,64.81
2016-10-14T05:22:30.191Z,65
2016-10-14T05:23:40.564Z,64.91
2016-10-14T05:24:50.571Z,64.87
2016-10-14T05:26:00.872Z,64.97
2016-10-14T05:27:10.845Z,64.91
2016-10-14T05:28:21.162Z,65.58
2016-10-14T05:29:31.135Z,65.39
2016-10-14T05:30:41.419Z,65.39
2016-10-14T05:31:51.698Z,65.39
2016-10-14T05:33:01.993Z,65.29
2016-10-14T05:34:12.272Z,65.39
2016-10-14T05:35:22.566Z,65.39
2016-10-14T05:36:32.864Z,65.29
2016-10-14T05:37:43.166Z,65.39
2016-10-14T05:38:52.844Z,65.2
2016-10-14T05:40:03.130Z,65.39
2016-10-14T05:41:13.407Z,65.29
2016-10-14T05:42:23.087Z,65.1
2016-10-14T05:43:33.060Z,65.29
2016-10-14T05:44:43.041Z,65.29
2016-10-14T05:45:53.331Z,65.2
2016-10-14T05:47:03.621Z,65.39
2016-10-14T05:48:13.906Z,65.1
2016-10-14T05:49:24.174Z,64.81
2016-10-14T05:50:34.165Z,64.72
2016-10-14T05:51:44.433Z,64.81
2016-10-14T05:52:54.718Z,64.62
2016-10-14T05:54:04.405Z,64.62
2016-10-14T05:55:14.381Z,64.62
2016-10-14T05:56:24.666Z,64.72
2016-10-14T05:57:34.350Z,64.91
2016-10-14T05:58:44.639Z,64.62
2016-10-14T05:59:54.916Z,64.65
2016-10-14T06:01:05.192Z,64.53
2016-10-14T06:02:15.478Z,64.65
2016-10-14T06:03:25.450Z,64.37
2016-10-14T06:04:35.441Z,64.28
2016-10-14T06:05:45.734Z,64.28
2016-10-14T06:06:56.046Z,64.18
2016-10-14T06:08:06.348Z,64.47
2016-10-14T06:09:16.646Z,64.09
2016-10-14T06:10:26.657Z,63.8
2016-10-14T06:11:36.946Z,64.18
2016-10-14T06:12:47.230Z,64.02
2016-10-14T06:13:57.509Z,64.28
2016-10-14T06:15:07.177Z,64.12
2016-10-14T06:16:17.489Z,64.4
2016-10-14T06:17:27.468Z,64.12
2016-10-14T06:18:37.143Z,64.4
2016-10-14T06:19:47.445Z,64.31
2016-10-14T06:20:57.726Z,64.4
2016-10-14T06:22:08.015Z,64.4
2016-10-14T06:23:17.990Z,64.31
2016-10-14T06:24:28.279Z,64.31
2016-10-14T06:25:38.570Z,63.67
2016-10-14T06:26:48.864Z,64.05
2016-10-14T06:27:59.172Z,64.43
2016-10-14T06:29:09.490Z,64.15
2016-10-14T06:30:19.471Z,64.34
2016-10-14T06:31:29.440Z,64.43
2016-10-14T06:32:39.409Z,64.15
2016-10-14T06:33:49.388Z,64.05
2016-10-14T06:34:59.719Z,64.34
2016-10-14T06:36:09.996Z,64.53
2016-10-14T06:37:19.661Z,64.15
2016-10-14T06:38:29.950Z,64.15
2016-10-14T06:39:40.245Z,64.05
2016-10-14T06:40:50.537Z,63.67
2016-10-14T06:42:00.826Z,63.57
2016-10-14T06:43:10.808Z,63.32
2016-10-14T06:44:21.083Z,63.42
2016-10-14T06:45:31.394Z,63.89
2016-10-14T06:46:41.391Z,63.89
2016-10-14T06:47:51.377Z,63.8
2016-10-14T06:49:01.079Z,63.51
2016-10-14T06:50:11.060Z,63.42
2016-10-14T06:51:21.351Z,63.32
2016-10-14T06:52:31.650Z,63.54
2016-10-14T06:53:41.333Z,63.45
2016-10-14T06:54:51.630Z,63.73
2016-10-14T06:56:01.926Z,63.73
2016-10-14T06:57:11.902Z,63.54
2016-10-14T06:58:21.878Z,63.16
2016-10-14T06:59:32.186Z,63.07
2016-10-14T07:00:42.183Z,63.07
2016-10-14T07:01:52.494Z,63.35
2016-10-14T07:03:02.784Z,63.16
2016-10-14T07:04:13.064Z,63.19
2016-10-14T07:05:23.363Z,63.29
2016-10-14T07:06:33.345Z,63.76
2016-10-14T07:07:43.628Z,63.19
2016-10-14T07:08:53.960Z,63.1
2016-10-14T07:10:04.414Z,63.29
2016-10-14T07:11:14.798Z,63.29
2016-10-14T07:12:24.779Z,63.1
2016-10-14T07:13:35.116Z,63.23
2016-10-14T07:14:45.104Z,63.23
2016-10-14T07:15:55.419Z,63.03
2016-10-14T07:17:06.976Z,63.42
2016-10-14T07:18:19.617Z,63.13
2016-10-14T07:19:33.376Z,63.13
2016-10-14T07:20:43.668Z,62.84
2016-10-14T07:21:53.664Z,62.84
2016-10-14T07:23:03.655Z,63.13
2016-10-14T07:24:13.941Z,63.06
2016-10-14T07:25:23.933Z,62.49
2016-10-14T07:26:34.245Z,62.3
2016-10-14T07:27:44.238Z,62.77
2016-10-14T07:28:54.519Z,63.06
2016-10-14T07:30:04.508Z,62.87
2016-10-14T07:31:14.821Z,63.26
2016-10-14T07:32:25.134Z,62.97
2016-10-14T07:33:35.490Z,62.87
2016-10-14T07:34:45.172Z,62.97
2016-10-14T07:35:55.493Z,62.52
2016-10-14T07:37:05.810Z,62.9
2016-10-14T07:38:16.127Z,62.9
2016-10-14T07:39:26.485Z,62.33
2016-10-14T07:40:36.534Z,62.9
2016-10-14T07:41:46.841Z,63.39
2016-10-14T07:42:56.862Z,63.16
2016-10-14T07:44:07.438Z,63.29
2016-10-14T07:45:18.004Z,63.39
2016-10-14T07:46:28.296Z,63.39
2016-10-14T07:47:38.301Z,63.1
2016-10-14T07:48:48.613Z,63.1
2016-10-14T07:49:58.939Z,63.39
2016-10-14T07:51:09.230Z,63.29
2016-10-14T07:52:19.223Z,63.29
2016-10-14T07:53:29.231Z,63
2016-10-14T07:54:39.235Z,62.9
2016-10-14T07:55:49.549Z,62.74
2016-10-14T07:56:59.845Z,62.17
2016-10-14T07:58:10.152Z,61.88
2016-10-14T07:59:20.466Z,62.07
2016-10-14T08:00:30.810Z,62.07
2016-10-14T08:01:41.150Z,62.49
2016-10-14T08:02:51.464Z,62.39
2016-10-14T08:04:01.477Z,62.39
2016-10-14T08:05:11.787Z,62.2
2016-10-14T08:06:22.106Z,62.3
2016-10-14T08:07:32.424Z,62.1
2016-10-14T08:08:42.443Z,62.77
2016-10-14T08:09:52.787Z,62.59
2016-10-14T08:11:03.098Z,62.49
2016-10-14T08:12:13.423Z,62.59
2016-10-14T08:13:23.424Z,62.3
2016-10-14T08:14:33.407Z,63.26
2016-10-14T08:15:43.705Z,63.22
2016-10-14T08:16:54.002Z,63.42
2016-10-14T08:18:03.974Z,62.55
2016-10-14T08:19:13.967Z,62.3
2016-10-14T08:20:24.267Z,62.49
2016-10-14T08:21:34.272Z,62.52
2016-10-14T08:22:44.586Z,61.75
2016-10-14T08:23:54.592Z,61.27
2016-10-14T08:25:04.904Z,61.49
2016-10-14T08:26:15.208Z,61.59
2016-10-14T08:27:25.507Z,62.13
2016-10-14T08:28:35.825Z,62.52
2016-10-14T08:29:46.117Z,61.94
2016-10-14T08:30:56.422Z,61.98
2016-10-14T08:32:06.727Z,62.16
2016-10-14T08:33:17.027Z,62.55
2016-10-14T08:34:27.333Z,62.45
2016-10-14T08:35:37.636Z,62.07
2016-10-14T08:36:47.936Z,62.33
2016-10-14T08:37:58.299Z,62.36
2016-10-14T08:39:08.307Z,62.9
2016-10-14T08:40:18.620Z,62.42
2016-10-14T08:41:28.600Z,62.33
2016-10-14T08:42:38.900Z,62.26
2016-10-14T08:43:48.882Z,62.07
2016-10-14T08:44:58.864Z,62.81
2016-10-14T08:46:08.866Z,62.42
2016-10-14T08:47:19.161Z,62.9
2016-10-14T08:48:29.463Z,62.62
2016-10-14T08:49:39.696Z,62.62
2016-10-14T08:50:49.987Z,62.52
2016-10-14T08:52:00.312Z,62.36
2016-10-14T08:53:10.307Z,62.45
2016-10-14T08:54:20.621Z,62.45
2016-10-14T08:55:30.926Z,62.36
2016-10-14T08:56:41.231Z,62.07
2016-10-14T08:57:51.533Z,62.26
2016-10-14T08:59:01.520Z,62.07
2016-10-14T09:00:11.813Z,62.55
2016-10-14T09:01:22.128Z,62.74
2016-10-14T09:02:32.140Z,62.16
2016-10-14T09:03:42.444Z,62.07
2016-10-14T09:04:52.423Z,62.01
2016-10-14T09:06:02.730Z,62.01
2016-10-14T09:07:13.034Z,61.91
2016-10-14T09:08:23.364Z,62.1
2016-10-14T09:09:33.674Z,62.39
2016-10-14T09:10:43.676Z,62.29
2016-10-14T09:11:53.987Z,61.91
2016-10-14T09:13:03.978Z,62.13
2016-10-14T09:14:14.297Z,62.01
2016-10-14T09:15:24.583Z,62.19
2016-10-14T09:16:34.805Z,62.19
2016-10-14T09:17:45.086Z,62.19
2016-10-14T09:18:54.768Z,62.19
2016-10-14T09:20:04.758Z,62.39
2016-10-14T09:21:14.749Z,62.87
2016-10-14T09:22:25.043Z,62.77
2016-10-14T09:23:35.334Z,62.58
2016-10-14T09:24:45.623Z,62.96
2016-10-14T09:25:55.937Z,62.96
2016-10-14T09:27:05.922Z,62.96
2016-10-14T09:28:16.234Z,62.19
2016-10-14T09:29:26.524Z,62.68
2016-10-14T09:30:36.815Z,62.68
2016-10-14T09:31:47.138Z,62.01
2016-10-14T09:32:57.440Z,62.1
2016-10-14T09:34:07.428Z,62.04
2016-10-14T09:35:17.423Z,61.84
2016-10-14T09:36:27.722Z,62.32
2016-10-14T09:37:37.724Z,62.32
2016-10-14T09:38:48.272Z,62.13
2016-10-14T09:39:58.583Z,62.32
2016-10-14T09:41:08.893Z,62.77
2016-10-14T09:42:19.188Z,62.96
2016-10-14T09:43:29.486Z,62.61
2016-10-14T09:44:39.485Z,61.84
2016-10-14T09:45:49.794Z,60.82
2016-10-14T09:46:59.780Z,61.14
2016-10-14T09:48:10.090Z,60.85
2016-10-14T09:49:20.419Z,61.11
2016-10-14T09:50:30.730Z,60.85
2016-10-14T09:51:41.038Z,61.52
2016-10-14T09:52:51.038Z,61.58
2016-10-14T09:54:01.025Z,61.58
2016-10-14T09:55:11.359Z,61.97
2016-10-14T09:56:21.658Z,61.68
2016-10-14T09:57:31.642Z,61.58
2016-10-14T09:58:41.935Z,61.97
2016-10-14T09:59:51.923Z,62.35
2016-10-14T10:01:02.225Z,61.87
2016-10-14T10:02:12.520Z,62.07
2016-10-14T10:03:22.499Z,62.07
2016-10-14T10:04:32.819Z,62.07
2016-10-14T10:05:42.805Z,61.49
2016-10-14T10:06:53.104Z,61.68
2016-10-14T10:08:03.418Z,61.87
2016-10-14T10:09:13.737Z,61.97
2016-10-14T10:10:24.057Z,61.3
2016-10-14T10:11:34.366Z,60.91
2016-10-14T10:12:44.659Z,60.85
2016-10-14T10:13:54.652Z,60.85
2016-10-14T10:15:04.947Z,61.04
2016-10-14T10:16:15.282Z,60.75
2016-10-14T10:17:25.594Z,60.37
2016-10-14T10:18:35.890Z,60.88
2016-10-14T10:19:46.191Z,60.39
2016-10-14T10:20:56.186Z,60.11
2016-10-14T10:22:06.185Z,60.33
2016-10-14T10:23:16.511Z,60.24
2016-10-14T10:24:26.811Z,60.52
2016-10-14T10:25:37.118Z,60.24
2016-10-14T10:26:47.415Z,60.33
2016-10-14T10:27:57.706Z,60.91
2016-10-14T10:29:07.706Z,60.52
2016-10-14T10:30:18.046Z,60.24
2016-10-14T10:31:28.353Z,60.52
2016-10-14T10:32:38.659Z,60.36
2016-10-14T10:33:48.369Z,60.27
2016-10-14T10:34:58.667Z,60.17
2016-10-14T10:36:08.703Z,60.46
2016-10-14T10:37:19.025Z,60.27
2016-10-14T10:38:29.346Z,60.36
2016-10-14T10:39:39.348Z,60.27
2016-10-14T10:40:49.362Z,60.75
2016-10-14T10:41:59.380Z,60.65
2016-10-14T10:43:09.796Z,60.55
2016-10-14T10:44:20.137Z,60.55
2016-10-14T10:45:30.527Z,60.46
2016-10-14T10:46:40.607Z,60.62
2016-10-14T10:47:50.917Z,60.52
2016-10-14T10:49:00.976Z,60.91
2016-10-14T10:50:11.407Z,61.1
2016-10-14T10:51:21.431Z,61.39
2016-10-14T10:52:31.815Z,61.55
2016-10-14T10:53:42.149Z,61.94
2016-10-14T10:54:52.489Z,61.55
2016-10-14T10:56:02.821Z,62.23
2016-10-14T10:57:13.157Z,62.1
2016-10-14T10:58:23.516Z,62.19
2016-10-14T10:59:33.543Z,62.1
2016-10-14T11:00:43.914Z,62.58
2016-10-14T11:01:54.263Z,62.68
2016-10-14T11:03:04.627Z,62.64
2016-10-14T11:04:14.603Z,62.55
2016-10-14T11:05:24.914Z,62.26
2016-10-14T11:06:35.278Z,62.55
2016-10-14T11:07:44.654Z,62.52
2016-10-14T11:08:54.951Z,62.32
2016-10-14T11:10:05.248Z,62.42
2016-10-14T11:11:15.541Z,62.42
2016-10-14T11:12:25.219Z,62.42
2016-10-14T11:13:35.546Z,62.23
2016-10-14T11:14:45.833Z,62.23
2016-10-14T11:15:56.149Z,62.52
2016-10-14T11:17:06.476Z,62.23
2016-10-14T11:18:16.778Z,62.13
2016-10-14T11:19:27.083Z,62.04
2016-10-14T11:20:37.385Z,62.23
2016-10-14T11:21:47.373Z,62.42
2016-10-14T11:22:57.675Z,62.32
2016-10-14T11:24:07.974Z,62.71
2016-10-14T11:25:18.275Z,62.42
2016-10-14T11:26:28.596Z,62.61
2016-10-14T11:27:38.895Z,62.04
2016-10-14T11:28:49.190Z,61.94
2016-10-14T11:29:59.493Z,62.13
2016-10-14T11:31:09.514Z,62.07
2016-10-14T11:32:19.813Z,62.23
2016-10-14T11:33:30.136Z,61.97
2016-10-14T11:34:40.482Z,61.36
2016-10-14T11:35:50.789Z,61.58
2016-10-14T11:37:00.473Z,61.49
2016-10-14T11:38:10.786Z,61.87
2016-10-14T11:39:20.778Z,61.97
2016-10-14T11:40:31.074Z,61.11
2016-10-14T11:41:41.081Z,61.2
2016-10-14T11:42:51.298Z,60.82
2016-10-14T11:44:01.630Z,60.66
2016-10-14T11:45:11.635Z,60.3
2016-10-14T11:46:21.923Z,60.04
2016-10-14T11:47:32.214Z,59.27
2016-10-14T11:48:42.217Z,59.2
2016-10-14T11:49:52.533Z,59.23
2016-10-14T11:51:02.514Z,59.14
2016-10-14T11:52:12.834Z,59.33
2016-10-14T11:53:23.122Z,59.45
2016-10-14T11:54:33.116Z,59.27
2016-10-14T11:55:42.481Z,59.36
2016-10-14T11:56:52.784Z,60.03
2016-10-14T11:58:03.109Z,60.1
2016-10-14T11:59:13.423Z,60.68
2016-10-14T12:00:23.409Z,59.91
2016-10-14T12:01:33.720Z,60.52
2016-10-14T12:02:44.009Z,60.32
2016-10-14T12:03:53.693Z,60.03
2016-10-14T12:05:03.994Z,60.32
2016-10-14T12:06:14.310Z,60.52
2016-10-14T12:07:23.686Z,60.61
2016-10-14T12:08:33.994Z,60.68
2016-10-14T12:09:44.282Z,60.61
2016-10-14T12:10:54.263Z,60.61
2016-10-14T12:12:04.556Z,60.87
2016-10-14T12:13:14.541Z,60.87
2016-10-14T12:14:24.832Z,61.07
2016-10-14T12:15:35.134Z,61.07
2016-10-14T12:16:45.473Z,60.97
2016-10-14T12:17:55.792Z,61.45
2016-10-14T12:19:06.123Z,61.07
2016-10-14T12:20:16.120Z,61.25
2016-10-14T12:21:26.417Z,61.04
2016-10-14T12:22:36.727Z,61.25
2016-10-14T12:23:46.721Z,60.87
2016-10-14T12:24:56.712Z,60.87
2016-10-14T12:26:07.024Z,61.16
2016-10-14T12:27:17.330Z,60.68
2016-10-14T12:28:27.309Z,60.77
2016-10-14T12:29:37.615Z,61
2016-10-14T12:30:47.605Z,60.77
2016-10-14T12:31:57.605Z,61.19
2016-10-14T12:33:07.913Z,61.29
2016-10-14T12:34:18.210Z,61
2016-10-14T12:35:28.189Z,60.9
2016-10-14T12:36:38.494Z,60.97
2016-10-14T12:37:48.796Z,61.29
2016-10-14T12:38:58.787Z,62.12
2016-10-14T12:40:09.108Z,61.83
2016-10-14T12:41:19.435Z,62.03
2016-10-14T12:42:29.428Z,61.93
2016-10-14T12:43:39.435Z,61.83
2016-10-14T12:44:49.426Z,61.74
2016-10-14T12:45:59.742Z,61.83
2016-10-14T12:47:10.074Z,62.03
2016-10-14T12:48:20.369Z,61.45
2016-10-14T12:49:30.368Z,62.22
2016-10-14T12:50:40.371Z,62.19
2016-10-14T12:51:50.372Z,62.09
2016-10-14T12:53:00.668Z,62.29
2016-10-14T12:54:10.969Z,62.29
2016-10-14T12:55:20.949Z,62.09
2016-10-14T12:56:31.262Z,62.48
2016-10-14T12:57:41.574Z,62.09
2016-10-14T12:58:51.556Z,62.19
2016-10-14T13:00:01.539Z,62.67
2016-10-14T13:01:11.541Z,62.57
2016-10-14T13:02:21.836Z,62.45
2016-10-14T13:03:32.144Z,62.64
2016-10-14T13:04:41.827Z,62.35
2016-10-14T13:05:51.824Z,62.64
2016-10-14T13:07:02.120Z,62.45
2016-10-14T13:08:12.446Z,62.45
2016-10-14T13:09:22.143Z,62.54
2016-10-14T13:10:32.128Z,62.35
2016-10-14T13:11:41.799Z,62.26
2016-10-14T13:12:51.480Z,62.26
2016-10-14T13:14:01.788Z,62.26
2016-10-14T13:15:11.196Z,62.54
2016-10-14T13:16:21.518Z,62.64
2016-10-14T13:17:31.202Z,62.99
2016-10-14T13:18:40.889Z,62.64
2016-10-14T13:19:50.593Z,62.54
2016-10-14T13:21:01.126Z,62.41
2016-10-14T13:22:11.122Z,62.64
2016-10-14T13:23:21.111Z,63.12
2016-10-14T13:24:30.789Z,63.09
2016-10-14T13:25:40.791Z,63.09
2016-10-14T13:26:50.799Z,62.61
2016-10-14T13:28:00.479Z,63.09
2016-10-14T13:29:10.479Z,63.09
2016-10-14T13:30:20.196Z,62.71
2016-10-14T13:31:30.220Z,62.51
2016-10-14T13:32:40.222Z,62.23
2016-10-14T13:33:50.218Z,62.35
2016-10-14T13:35:00.215Z,62.64
2016-10-14T13:36:10.511Z,62.16
2016-10-14T13:37:20.215Z,62.54
2016-10-14T13:38:30.535Z,62.74
2016-10-14T13:39:40.536Z,62.9
2016-10-14T13:40:50.884Z,63.41
2016-10-14T13:42:00.585Z,63.18
2016-10-14T13:43:10.902Z,63.67
2016-10-14T13:44:20.892Z,63.57
2016-10-14T13:45:30.881Z,63.64
2016-10-14T13:46:40.902Z,63.35
2016-10-14T13:47:50.877Z,63.45
2016-10-14T13:49:01.117Z,63.64
2016-10-14T13:50:11.428Z,63.92
2016-10-14T13:51:21.748Z,64.18
2016-10-14T13:52:32.107Z,64.09
2016-10-14T13:53:42.115Z,64.28
2016-10-14T13:54:51.807Z,64.05
2016-10-14T13:56:02.113Z,64.28
2016-10-14T13:57:12.423Z,64.47
2016-10-14T13:58:22.738Z,64.43
2016-10-14T13:59:33.061Z,63.67
2016-10-14T14:00:42.757Z,63.7
2016-10-14T14:01:52.444Z,63.96
2016-10-14T14:03:02.132Z,63.86
2016-10-14T14:04:12.121Z,63.67
2016-10-14T14:05:22.445Z,64.25
2016-10-14T14:06:32.760Z,64.25
2016-10-14T14:07:43.061Z,64.25
2016-10-14T14:08:53.369Z,64.15
2016-10-14T14:10:03.381Z,63.96
2016-10-14T14:11:13.062Z,63.96
2016-10-14T14:12:23.357Z,63.96
2016-10-14T14:13:33.665Z,63.48
2016-10-14T14:14:43.351Z,63.38
2016-10-14T14:15:53.674Z,63.48
2016-10-14T14:17:03.977Z,63.19
2016-10-14T14:18:14.289Z,63.19
2016-10-14T14:19:24.598Z,63.38
2016-10-14T14:20:34.280Z,63.38
2016-10-14T14:21:44.275Z,63.19
2016-10-14T14:22:54.277Z,64.05
2016-10-14T14:24:04.271Z,63.67
2016-10-14T14:25:14.280Z,64.31
2016-10-14T14:26:24.600Z,64.02
2016-10-14T14:27:34.596Z,63.92
2016-10-14T14:28:44.283Z,64.02
2016-10-14T14:29:54.591Z,64.4
2016-10-14T14:31:04.904Z,64.59
2016-10-14T14:32:15.208Z,64.22
2016-10-14T14:33:25.519Z,64.02
2016-10-14T14:34:35.837Z,64.22
2016-10-14T14:35:46.147Z,64.02
2016-10-14T14:36:56.462Z,64.31
2016-10-14T14:38:06.772Z,64.31
2016-10-14T14:39:17.099Z,64.22
2016-10-14T14:40:27.388Z,64.4
2016-10-14T14:41:37.696Z,64.02
2016-10-14T14:42:47.388Z,64.5
2016-10-14T14:43:57.681Z,64.5
2016-10-14T14:45:07.664Z,64.31
2016-10-14T14:46:17.947Z,64.4
2016-10-14T14:47:28.222Z,64.31
2016-10-14T14:48:38.216Z,64.69
2016-10-14T14:49:48.214Z,64.79
2016-10-14T14:50:58.530Z,64.18
2016-10-14T14:52:08.546Z,64.59
2016-10-14T14:53:18.534Z,64.47
2016-10-14T14:54:28.844Z,64.69
2016-10-14T14:55:39.137Z,64.66
2016-10-14T14:56:48.813Z,64.47
2016-10-14T14:57:58.804Z,64.66
2016-10-14T14:59:08.801Z,64.66
2016-10-14T15:00:18.783Z,64.56
2016-10-14T15:01:28.769Z,64.66
2016-10-14T15:02:38.440Z,64.66
2016-10-14T15:03:48.434Z,64.43
2016-10-14T15:04:58.725Z,64.53
2016-10-14T15:06:08.095Z,64.53
2016-10-14T15:07:18.092Z,64.43
2016-10-14T15:08:28.405Z,64.63
2016-10-14T15:09:38.696Z,64.72
2016-10-14T15:10:48.991Z,64.72
2016-10-14T15:11:59.297Z,64.98
2016-10-14T15:13:09.296Z,64.69
2016-10-14T15:14:19.303Z,64.98
2016-10-14T15:15:29.624Z,64.43
2016-10-14T15:16:39.946Z,64.5
2016-10-14T15:17:50.284Z,64.89
2016-10-14T15:19:00.340Z,64.5
2016-10-14T15:20:10.356Z,64.69
2016-10-14T15:21:20.658Z,64.4
2016-10-14T15:22:30.985Z,64.59
2016-10-14T15:23:41.291Z,64.59
2016-10-14T15:24:51.304Z,64.5
2016-10-14T15:26:01.299Z,64.69
2016-10-14T15:27:11.308Z,64.89
2016-10-14T15:28:21.294Z,64.79
2016-10-14T15:29:31.316Z,64.98
2016-10-14T15:30:41.627Z,65.36
2016-10-14T15:31:51.631Z,65.14
2016-10-14T15:33:01.950Z,65.05
2016-10-14T15:34:11.941Z,65.23
2016-10-14T15:35:21.968Z,65.33
2016-10-14T15:36:31.980Z,65.23
2016-10-14T15:37:41.676Z,64.95
2016-10-14T15:38:51.675Z,65.05